createdAt,value
2023-05-08T05:03:06.139Z,25.00
2023-05-08T05:04:07.174Z,25.00
2023-05-08T05:05:07.153Z,25.00
2023-05-08T05:06:07.163Z,25.00
2023-05-08T05:07:07.210Z,25.00
2023-05-08T05:08:06.264Z,25.00
2023-05-08T05:09:06.222Z,0.00
2023-05-08T05:10:07.272Z,0.00
2023-05-08T05:11:06.312Z,0.00
2023-05-08T05:12:07.360Z,0.00
2023-05-08T05:13:07.479Z,0.00
2023-05-08T05:14:06.418Z,0.00
2023-05-08T05:15:07.449Z,0.00
2023-05-08T05:16:06.489Z,0.00
2023-05-08T05:17:06.467Z,0.00
2023-05-08T05:18:07.601Z,0.00
2023-05-08T05:19:06.506Z,0.00
2023-05-08T05:20:07.513Z,0.00
2023-05-08T05:21:06.529Z,0.00
2023-05-08T05:22:07.538Z,0.00
2023-05-08T05:23:07.542Z,0.00
2023-05-08T05:24:07.548Z,0.00
2023-05-08T05:25:07.570Z,0.00
2023-05-08T05:26:06.549Z,0.00
2023-05-08T05:27:07.535Z,0.00
2023-05-08T05:28:07.554Z,0.00
2023-05-08T05:29:07.604Z,0.00
2023-05-08T05:30:06.556Z,0.00
2023-05-08T05:31:07.704Z,0.00
2023-05-08T05:32:06.548Z,0.00
2023-05-08T05:33:06.582Z,0.00
2023-05-08T05:34:07.603Z,0.00
2023-05-08T05:35:06.554Z,0.00
2023-05-08T05:36:06.527Z,0.00
2023-05-08T05:37:07.518Z,0.00
2023-05-08T05:38:06.520Z,0.00
2023-05-08T05:39:07.518Z,17.50
2023-05-08T05:40:06.521Z,25.34
2023-05-08T05:41:07.517Z,24.73
2023-05-08T05:42:07.518Z,26.12
2023-05-08T05:43:06.502Z,26.83
2023-05-08T05:44:06.511Z,25.37
2023-05-08T05:45:06.501Z,25.07
2023-05-08T05:46:06.524Z,26.40
2023-05-08T05:47:07.549Z,26.92
2023-05-08T05:48:07.526Z,26.88
2023-05-08T05:49:07.492Z,30.39
2023-05-08T05:50:07.513Z,25.77
2023-05-08T05:51:07.465Z,27.05
2023-05-08T05:52:06.473Z,27.12
2023-05-08T05:53:07.468Z,27.79
2023-05-08T05:54:06.518Z,28.16
2023-05-08T05:55:07.604Z,25.01
2023-05-08T05:56:06.483Z,25.30
2023-05-08T05:57:06.467Z,25.34
2023-05-08T05:58:07.484Z,27.93
2023-05-08T05:59:07.512Z,25.00
2023-05-08T06:00:06.462Z,26.23
2023-05-08T06:01:06.534Z,28.93
2023-05-08T06:02:06.609Z,26.54
2023-05-08T06:03:06.527Z,26.96
2023-05-08T06:04:06.579Z,29.44
2023-05-08T06:05:07.537Z,31.47
2023-05-08T06:06:07.598Z,32.01
2023-05-08T06:07:06.490Z,26.53
2023-05-08T06:08:06.530Z,29.54
2023-05-08T06:09:07.556Z,29.83
2023-05-08T06:10:07.698Z,31.41
2023-05-08T06:11:06.726Z,29.98
2023-05-08T06:12:06.711Z,29.80
2023-05-08T06:13:07.880Z,25.23
2023-05-08T06:14:07.948Z,29.82
2023-05-08T06:15:06.908Z,34.15
2023-05-08T06:16:07.967Z,33.90
2023-05-08T06:17:08.207Z,36.81
2023-05-08T06:18:07.130Z,32.50
2023-05-08T06:19:07.098Z,28.42
2023-05-08T06:20:07.210Z,27.98
2023-05-08T06:21:08.207Z,29.42
2023-05-08T06:22:07.336Z,33.12
2023-05-08T06:23:08.318Z,32.79
2023-05-08T06:24:08.341Z,30.58
2023-05-08T06:25:07.429Z,28.52
2023-05-08T06:26:07.438Z,32.05
2023-05-08T06:27:08.463Z,31.91
2023-05-08T06:28:07.520Z,28.28
2023-05-08T06:29:07.545Z,27.44
2023-05-08T06:30:07.587Z,25.49
2023-05-08T06:31:07.722Z,29.57
2023-05-08T06:32:08.702Z,28.84
2023-05-08T06:33:08.718Z,29.35
2023-05-08T06:34:08.796Z,31.90
2023-05-08T06:35:07.898Z,27.78
2023-05-08T06:36:07.908Z,28.27
2023-05-08T06:37:07.894Z,30.47
2023-05-08T06:38:09.026Z,31.47
2023-05-08T06:39:08.938Z,30.41
2023-05-08T06:40:12.023Z,36.13
2023-05-08T06:41:08.959Z,36.24
2023-05-08T06:42:08.971Z,31.01
2023-05-08T06:43:07.967Z,32.88
2023-05-08T06:44:08.086Z,34.44
2023-05-08T06:45:07.956Z,35.83
2023-05-08T06:46:09.067Z,36.84
2023-05-08T06:47:07.917Z,33.47
2023-05-08T06:48:08.968Z,32.18
2023-05-08T06:49:08.912Z,35.75
2023-05-08T06:50:09.008Z,35.19
2023-05-08T06:51:07.894Z,34.94
2023-05-08T06:52:08.928Z,35.22
2023-05-08T06:53:08.916Z,34.83
2023-05-08T06:54:07.925Z,36.06
2023-05-08T06:55:09.012Z,35.14
2023-05-08T06:56:07.906Z,36.02
2023-05-08T06:57:07.894Z,41.61
2023-05-08T06:58:07.873Z,71.20
2023-05-08T06:59:09.074Z,72.64
2023-05-08T07:00:07.872Z,78.08
2023-05-08T07:01:07.931Z,76.99
2023-05-08T07:02:09.192Z,68.99
2023-05-08T07:03:08.001Z,63.64
2023-05-08T07:04:07.994Z,61.52
2023-05-08T07:05:08.102Z,59.43
2023-05-08T07:06:07.974Z,62.16
2023-05-08T07:07:09.022Z,61.23
2023-05-08T07:08:09.072Z,60.88
2023-05-08T07:09:08.058Z,61.90
2023-05-08T07:10:08.172Z,57.70
2023-05-08T07:11:08.032Z,51.94
2023-05-08T07:12:09.073Z,55.30
2023-05-08T07:13:08.099Z,54.17
2023-05-08T07:14:08.082Z,55.82
2023-05-08T07:15:21.816Z,55.98
2023-05-08T07:16:09.130Z,56.10
2023-05-08T07:17:08.074Z,56.38
2023-05-08T07:18:08.102Z,56.44
2023-05-08T07:19:08.048Z,55.39
2023-05-08T07:20:08.050Z,56.69
2023-05-08T07:21:08.046Z,58.45
2023-05-08T07:22:08.065Z,52.53
2023-05-08T07:23:08.013Z,55.78
2023-05-08T07:24:08.000Z,56.41
2023-05-08T07:25:08.062Z,57.38
2023-05-08T07:26:08.060Z,58.61
2023-05-08T07:27:09.021Z,60.71
2023-05-08T07:28:09.039Z,60.11
2023-05-08T07:29:07.988Z,64.45
2023-05-08T07:30:07.999Z,61.76
2023-05-08T07:31:08.122Z,66.10
2023-05-08T07:32:09.039Z,64.59
2023-05-08T07:33:09.050Z,69.66
2023-05-08T07:34:07.988Z,66.61
2023-05-08T07:35:10.285Z,67.24
2023-05-08T07:36:07.921Z,74.17
2023-05-08T07:37:07.932Z,74.30
2023-05-08T07:38:07.908Z,79.04
2023-05-08T07:39:08.900Z,73.62
2023-05-08T07:40:07.941Z,76.17
2023-05-08T07:41:08.924Z,76.11
2023-05-08T07:42:08.966Z,77.78
2023-05-08T07:43:08.879Z,79.62
2023-05-08T07:44:07.867Z,87.55
2023-05-08T07:45:08.879Z,104.93
2023-05-08T07:46:08.889Z,113.50
2023-05-08T07:47:08.973Z,111.36
2023-05-08T07:48:08.877Z,106.70
2023-05-08T07:49:07.823Z,105.10
2023-05-08T07:50:07.828Z,98.94
2023-05-08T07:51:08.975Z,96.89
2023-05-08T07:52:07.841Z,95.15
2023-05-08T07:53:07.803Z,98.80
2023-05-08T07:54:08.825Z,94.85
2023-05-08T07:55:07.818Z,93.93
2023-05-08T07:56:07.811Z,93.97
2023-05-08T07:57:07.827Z,96.06
2023-05-08T07:58:07.808Z,93.43
2023-05-08T07:59:07.785Z,92.41
2023-05-08T08:00:07.815Z,92.76
2023-05-08T08:01:07.752Z,93.28
2023-05-08T08:02:08.808Z,89.31
2023-05-08T08:03:08.830Z,92.68
2023-05-08T08:04:07.795Z,89.95
2023-05-08T08:05:08.724Z,94.43
2023-05-08T08:06:08.764Z,92.87
2023-05-08T08:07:07.723Z,91.93
2023-05-08T08:08:07.718Z,90.67
2023-05-08T08:09:07.694Z,90.56
2023-05-08T08:10:07.718Z,91.07
2023-05-08T08:11:08.753Z,90.16
2023-05-08T08:12:07.714Z,89.12
2023-05-08T08:13:07.767Z,88.68
2023-05-08T08:14:07.906Z,87.95
2023-05-08T08:15:08.679Z,88.38
2023-05-08T08:16:07.695Z,87.70
2023-05-08T08:17:07.735Z,85.56
2023-05-08T08:18:07.677Z,87.93
2023-05-08T08:19:08.706Z,88.43
2023-05-08T08:20:08.706Z,86.01
2023-05-08T08:21:07.745Z,88.08
2023-05-08T08:22:07.638Z,86.15
2023-05-08T08:23:07.647Z,88.71
2023-05-08T08:24:07.598Z,85.90
2023-05-08T08:25:07.572Z,89.03
2023-05-08T08:26:07.587Z,88.12
2023-05-08T08:27:07.610Z,87.07
2023-05-08T08:28:08.570Z,84.81
2023-05-08T08:29:07.618Z,87.15
2023-05-08T08:30:17.027Z,85.97
2023-05-08T08:31:08.616Z,86.18
2023-05-08T08:32:07.530Z,86.37
2023-05-08T08:33:07.657Z,86.69
2023-05-08T08:34:07.579Z,85.39
2023-05-08T08:35:07.584Z,85.75
2023-05-08T08:36:07.546Z,85.25
2023-05-08T08:37:08.493Z,85.81
2023-05-08T08:38:07.491Z,83.32
2023-05-08T08:39:10.962Z,85.10
2023-05-08T08:40:07.511Z,85.24
2023-05-08T08:41:08.514Z,83.17
2023-05-08T08:42:08.465Z,72.10
2023-05-08T08:43:08.483Z,78.88
2023-05-08T08:44:07.445Z,79.48
2023-05-08T08:45:08.435Z,78.15
2023-05-08T08:46:08.618Z,78.55
2023-05-08T08:47:07.446Z,79.07
2023-05-08T08:48:07.469Z,74.71
2023-05-08T08:49:08.497Z,77.01
2023-05-08T08:50:08.476Z,76.87
2023-05-08T08:51:07.484Z,78.18
2023-05-08T08:52:07.376Z,71.82
2023-05-08T08:53:07.372Z,71.92
2023-05-08T08:54:08.379Z,73.73
2023-05-08T08:55:08.398Z,76.40
2023-05-08T08:56:08.376Z,75.01
2023-05-08T08:57:07.351Z,66.79
2023-05-08T08:58:08.344Z,67.50
2023-05-08T08:59:08.345Z,56.70
2023-05-08T09:00:07.341Z,62.54
2023-05-08T09:01:08.480Z,62.83
2023-05-08T09:02:08.543Z,64.81
2023-05-08T09:03:08.394Z,62.73
2023-05-08T09:04:08.522Z,63.08
2023-05-08T09:05:07.295Z,57.99
2023-05-08T09:06:07.287Z,57.43
2023-05-08T09:07:08.276Z,60.43
2023-05-08T09:08:07.307Z,59.73
2023-05-08T09:09:07.277Z,60.73
2023-05-08T09:10:09.298Z,60.46
2023-05-08T09:11:08.262Z,60.19
2023-05-08T09:12:08.266Z,57.95
2023-05-08T09:13:07.284Z,57.59
2023-05-08T09:14:08.242Z,58.64
2023-05-08T09:15:07.241Z,54.69
2023-05-08T09:16:07.301Z,55.71
2023-05-08T09:17:08.233Z,59.54
2023-05-08T09:18:08.382Z,55.40
2023-05-08T09:19:08.251Z,56.37
2023-05-08T09:20:07.385Z,59.59
2023-05-08T09:21:07.306Z,58.27
2023-05-08T09:22:07.245Z,59.20
2023-05-08T09:23:08.279Z,59.24
2023-05-08T09:24:08.255Z,57.88
2023-05-08T09:25:08.270Z,58.69
2023-05-08T09:26:08.270Z,58.41
2023-05-08T09:27:08.237Z,61.02
2023-05-08T09:28:07.239Z,57.81
2023-05-08T09:29:08.235Z,60.04
2023-05-08T09:30:07.238Z,58.23
2023-05-08T09:31:08.239Z,58.75
2023-05-08T09:32:08.302Z,56.59
2023-05-08T09:33:08.305Z,57.76
2023-05-08T09:34:07.339Z,58.16
2023-05-08T09:35:08.219Z,59.37
2023-05-08T09:36:07.225Z,55.65
2023-05-08T09:37:07.216Z,55.25
2023-05-08T09:38:08.231Z,58.11
2023-05-08T09:39:07.203Z,54.86
2023-05-08T09:40:08.201Z,56.56
2023-05-08T09:41:08.202Z,55.50
2023-05-08T09:42:07.192Z,55.26
2023-05-08T09:43:07.206Z,57.58
2023-05-08T09:44:08.194Z,57.85
2023-05-08T09:45:08.189Z,56.45
2023-05-08T09:46:08.227Z,53.92
2023-05-08T09:47:08.173Z,53.90
2023-05-08T09:48:08.250Z,53.95
2023-05-08T09:49:08.175Z,54.21
2023-05-08T09:50:08.284Z,51.97
2023-05-08T09:51:08.194Z,54.35
2023-05-08T09:52:08.575Z,51.96
2023-05-08T09:53:07.151Z,53.85
2023-05-08T09:54:08.150Z,51.99
2023-05-08T09:55:07.166Z,52.16
2023-05-08T09:56:08.168Z,50.88
2023-05-08T09:57:08.154Z,49.42
2023-05-08T09:58:07.156Z,51.64
2023-05-08T09:59:08.147Z,51.09
2023-05-08T10:00:08.143Z,51.82
2023-05-08T10:01:07.175Z,52.32
2023-05-08T10:02:08.123Z,50.92
2023-05-08T10:03:08.185Z,48.90
2023-05-08T10:04:07.189Z,50.15
2023-05-08T10:05:07.205Z,48.45
2023-05-08T10:06:07.271Z,45.03
2023-05-08T10:07:07.136Z,49.77
2023-05-08T10:08:08.152Z,48.64
2023-05-08T10:09:08.174Z,46.23
2023-05-08T10:10:07.184Z,44.71
2023-05-08T10:11:07.145Z,44.11
2023-05-08T10:12:08.159Z,45.57
2023-05-08T10:13:08.221Z,44.60
2023-05-08T10:14:08.207Z,42.51
2023-05-08T10:15:08.240Z,42.61
2023-05-08T10:16:08.253Z,41.85
2023-05-08T10:17:07.345Z,42.41
2023-05-08T10:18:07.372Z,39.94
2023-05-08T10:19:07.257Z,40.79
2023-05-08T10:20:08.298Z,40.19
2023-05-08T10:21:08.253Z,40.38
2023-05-08T10:22:08.442Z,38.79
2023-05-08T10:23:07.326Z,37.90
2023-05-08T10:24:08.317Z,36.00
2023-05-08T10:25:08.345Z,37.50
2023-05-08T10:26:08.341Z,35.70
2023-05-08T10:27:08.054Z,36.12
2023-05-08T10:28:08.366Z,33.96
2023-05-08T10:29:08.389Z,31.61
2023-05-08T10:30:08.406Z,31.33
2023-05-08T10:31:08.448Z,32.37
2023-05-08T10:32:08.438Z,31.52
2023-05-08T10:33:08.475Z,31.50
2023-05-08T10:34:08.472Z,33.07
2023-05-08T10:35:07.518Z,30.44
2023-05-08T10:36:08.578Z,27.26
2023-05-08T10:37:07.551Z,28.91
2023-05-08T10:38:07.811Z,30.95
2023-05-08T10:39:08.681Z,29.43
2023-05-08T10:40:07.714Z,28.22
2023-05-08T10:41:07.691Z,27.25
2023-05-08T10:42:09.166Z,28.39
2023-05-08T10:43:08.784Z,29.67
2023-05-08T10:44:07.840Z,30.64
2023-05-08T10:45:07.803Z,32.35
2023-05-08T10:46:07.933Z,29.85
2023-05-08T10:47:08.103Z,33.25
2023-05-08T10:48:08.105Z,32.69
2023-05-08T10:49:08.055Z,31.11
2023-05-08T10:50:08.106Z,29.73
2023-05-08T10:51:08.088Z,29.19
2023-05-08T10:52:08.195Z,31.56
2023-05-08T10:53:08.221Z,29.41
2023-05-08T10:54:08.320Z,31.14
2023-05-08T10:55:09.306Z,30.12
2023-05-08T10:56:08.266Z,27.53
2023-05-08T10:57:08.349Z,30.68
2023-05-08T10:58:08.356Z,31.29
2023-05-08T10:59:09.415Z,31.51
2023-05-08T11:00:08.565Z,32.02
2023-05-08T11:01:09.669Z,31.00
2023-05-08T11:02:09.772Z,27.98
2023-05-08T11:03:16.900Z,30.86
2023-05-08T11:04:09.787Z,30.97
2023-05-08T11:05:08.682Z,31.05
2023-05-08T11:06:08.679Z,31.19
2023-05-08T11:07:09.605Z,29.26
2023-05-08T11:08:08.582Z,30.05
2023-05-08T11:09:08.636Z,28.97
2023-05-08T11:10:08.602Z,30.25
2023-05-08T11:11:08.571Z,30.73
2023-05-08T11:12:08.698Z,30.78
2023-05-08T11:13:08.703Z,32.18
2023-05-08T11:14:09.692Z,30.37
2023-05-08T11:15:08.741Z,28.26
2023-05-08T11:16:09.846Z,30.51
2023-05-08T11:17:09.898Z,32.51
2023-05-08T11:18:09.134Z,33.09
2023-05-08T11:19:09.027Z,30.25
2023-05-08T11:20:09.067Z,32.15
2023-05-08T11:21:10.170Z,32.58
2023-05-08T11:22:09.193Z,31.93
2023-05-08T11:23:10.242Z,33.84
2023-05-08T11:24:09.369Z,32.77
2023-05-08T11:25:10.429Z,31.47
2023-05-08T11:26:10.513Z,29.81
2023-05-08T11:27:09.492Z,31.92
2023-05-08T11:28:10.579Z,30.76
2023-05-08T11:29:09.689Z,31.23
2023-05-08T11:30:09.735Z,32.05
2023-05-08T11:31:09.758Z,29.02
2023-05-08T11:32:10.800Z,29.55
2023-05-08T11:33:09.899Z,27.02
2023-05-08T11:34:09.975Z,28.07
2023-05-08T11:35:10.016Z,27.36
2023-05-08T11:36:10.081Z,27.09
2023-05-08T11:37:11.191Z,25.39
2023-05-08T11:38:11.220Z,26.61
2023-05-08T11:39:10.274Z,25.17
2023-05-08T11:40:10.424Z,26.91
2023-05-08T11:41:11.433Z,25.16
2023-05-08T11:42:10.778Z,26.50
2023-05-08T11:43:10.556Z,25.79
2023-05-08T11:44:11.657Z,26.68
2023-05-08T11:45:10.695Z,27.08
2023-05-08T11:46:11.783Z,25.00
2023-05-08T11:47:11.901Z,26.75
2023-05-08T11:48:11.985Z,26.08
2023-05-08T11:49:11.009Z,25.00
2023-05-08T11:50:12.282Z,27.86
2023-05-08T11:51:11.141Z,29.69
2023-05-08T11:52:12.171Z,29.83
2023-05-08T11:53:11.295Z,28.29
2023-05-08T11:54:11.300Z,26.97
2023-05-08T11:55:11.380Z,25.49
2023-05-08T11:56:11.443Z,25.85
2023-05-08T11:57:11.424Z,25.87
2023-05-08T11:58:12.497Z,26.55
2023-05-08T11:59:11.584Z,26.41
2023-05-08T12:00:12.056Z,25.17
2023-05-08T12:01:12.770Z,26.67
2023-05-08T12:02:11.787Z,27.01
2023-05-08T12:03:13.001Z,26.18
2023-05-08T12:04:12.033Z,26.65
2023-05-08T12:05:12.971Z,25.51
2023-05-08T12:06:12.976Z,26.69
2023-05-08T12:07:12.105Z,26.95
2023-05-08T12:08:13.101Z,26.13
2023-05-08T12:09:12.204Z,25.00
2023-05-08T12:10:12.309Z,26.93
2023-05-08T12:11:13.204Z,27.98
2023-05-08T12:12:13.216Z,28.97
2023-05-08T12:13:13.388Z,27.42
2023-05-08T12:14:12.324Z,26.56
2023-05-08T12:15:12.348Z,25.22
2023-05-08T12:16:12.401Z,25.00
2023-05-08T12:17:13.556Z,29.29
2023-05-08T12:18:13.518Z,25.00
2023-05-08T12:19:12.532Z,25.75
2023-05-08T12:20:12.872Z,30.65
2023-05-08T12:21:12.634Z,29.65
2023-05-08T12:22:12.669Z,31.58
2023-05-08T12:23:12.788Z,25.71
2023-05-08T12:24:12.864Z,27.89
2023-05-08T12:25:13.155Z,26.40
2023-05-08T12:26:12.960Z,27.17
2023-05-08T12:27:12.918Z,25.00
2023-05-08T12:28:13.067Z,25.78
2023-05-08T12:29:13.078Z,27.97
2023-05-08T12:30:13.461Z,24.80
2023-05-08T12:31:13.186Z,27.76
2023-05-08T12:32:13.199Z,24.58
2023-05-08T12:33:14.467Z,25.33
2023-05-08T12:34:13.317Z,29.89
2023-05-08T12:35:13.404Z,30.94
2023-05-08T12:36:13.407Z,29.26
2023-05-08T12:37:13.526Z,33.10
2023-05-08T12:38:14.528Z,40.19
2023-05-08T12:39:13.640Z,43.91
2023-05-08T12:40:13.720Z,49.46
2023-05-08T12:41:14.572Z,55.39
2023-05-08T12:42:14.596Z,56.85
2023-05-08T12:43:13.595Z,60.01
2023-05-08T12:44:13.600Z,63.76
2023-05-08T12:45:13.602Z,67.67
2023-05-08T12:46:13.717Z,80.19
2023-05-08T12:47:14.578Z,87.42
2023-05-08T12:48:14.579Z,90.72
2023-05-08T12:49:14.570Z,96.45
2023-05-08T12:50:14.831Z,99.80
2023-05-08T12:51:14.620Z,107.04
2023-05-08T12:52:14.671Z,106.90
2023-05-08T12:53:13.723Z,110.77
2023-05-08T12:54:14.752Z,110.30
2023-05-08T12:55:14.801Z,112.81
2023-05-08T12:56:14.839Z,114.03
2023-05-08T12:57:14.887Z,115.86
2023-05-08T12:58:15.718Z,124.51
2023-05-08T12:59:13.917Z,129.96
2023-05-08T13:00:15.095Z,130.79
2023-05-08T13:01:13.981Z,132.48
2023-05-08T13:02:15.174Z,144.17
2023-05-08T13:03:14.037Z,151.69
2023-05-08T13:04:14.051Z,151.91
2023-05-08T13:05:15.001Z,156.67
2023-05-08T13:06:15.045Z,159.16
2023-05-08T13:07:15.089Z,155.75
2023-05-08T13:08:14.157Z,161.38
2023-05-08T13:09:15.202Z,164.69
2023-05-08T13:10:15.488Z,162.86
2023-05-08T13:11:14.319Z,164.47
2023-05-08T13:12:15.369Z,165.75
2023-05-08T13:13:15.493Z,167.95
2023-05-08T13:14:15.478Z,166.31
2023-05-08T13:15:15.610Z,165.94
2023-05-08T13:16:14.613Z,161.23
2023-05-08T13:17:14.629Z,167.24
2023-05-08T13:18:15.826Z,169.64
2023-05-08T13:19:14.749Z,163.40
2023-05-08T13:20:15.006Z,162.38
2023-05-08T13:21:14.822Z,167.90
2023-05-08T13:22:14.867Z,167.99
2023-05-08T13:23:15.912Z,171.23
2023-05-08T13:24:15.943Z,166.49
2023-05-08T13:25:15.181Z,170.13
2023-05-08T13:26:16.013Z,168.05
2023-05-08T13:27:16.042Z,159.81
2023-05-08T13:28:16.058Z,152.65
2023-05-08T13:29:16.077Z,151.49
2023-05-08T13:30:15.304Z,153.33
2023-05-08T13:31:15.148Z,161.61
2023-05-08T13:32:15.127Z,160.40
2023-05-08T13:33:16.072Z,163.45
2023-05-08T13:34:16.199Z,155.30
2023-05-08T13:35:15.211Z,154.12
2023-05-08T13:36:16.104Z,157.49
2023-05-08T13:37:16.097Z,157.98
2023-05-08T13:38:15.112Z,164.11
2023-05-08T13:39:16.098Z,164.44
2023-05-08T13:40:15.164Z,159.53
2023-05-08T13:41:16.135Z,159.35
2023-05-08T13:42:15.148Z,164.28
2023-05-08T13:43:15.150Z,173.98
2023-05-08T13:44:15.153Z,165.21
2023-05-08T13:45:15.539Z,170.05
2023-05-08T13:46:15.219Z,168.78
2023-05-08T13:47:16.164Z,165.29
2023-05-08T13:48:15.180Z,171.59
2023-05-08T13:49:15.188Z,168.11
2023-05-08T13:50:15.198Z,155.62
2023-05-08T13:51:16.186Z,156.92
2023-05-08T13:52:15.179Z,163.54
2023-05-08T13:53:15.196Z,152.19
2023-05-08T13:54:16.172Z,152.85
2023-05-08T13:55:15.335Z,151.27
2023-05-08T13:56:16.163Z,131.54
2023-05-08T13:57:16.160Z,130.27
2023-05-08T13:58:16.162Z,123.43
2023-05-08T13:59:15.158Z,117.64
2023-05-08T14:00:15.167Z,122.98
2023-05-08T14:01:25.502Z,123.41
2023-05-08T14:02:16.270Z,123.59
2023-05-08T14:03:16.225Z,123.61
2023-05-08T14:04:16.164Z,115.60
2023-05-08T14:05:15.413Z,118.82
2023-05-08T14:06:16.252Z,114.30
2023-05-08T14:07:16.128Z,87.53
2023-05-08T14:08:16.133Z,101.30
2023-05-08T14:09:16.138Z,110.34
2023-05-08T14:10:16.106Z,108.22
2023-05-08T14:11:15.133Z,107.76
2023-05-08T14:12:15.087Z,100.10
2023-05-08T14:13:16.124Z,76.32
2023-05-08T14:14:15.091Z,54.27
2023-05-08T14:15:16.376Z,30.98
2023-05-08T14:16:15.121Z,26.68
2023-05-08T14:17:16.065Z,25.00
2023-05-08T14:18:16.058Z,25.02
2023-05-08T14:19:15.046Z,25.00
2023-05-08T14:20:16.051Z,25.00
2023-05-08T14:21:15.052Z,25.00
2023-05-08T14:22:16.148Z,28.49
2023-05-08T14:23:16.028Z,30.39
2023-05-08T14:24:16.016Z,33.60
2023-05-08T14:25:16.163Z,21.09
2023-05-08T14:26:16.111Z,40.22
2023-05-08T14:27:16.017Z,41.45
2023-05-08T14:28:14.989Z,37.27
2023-05-08T14:29:14.996Z,34.22
2023-05-08T14:30:15.973Z,24.92
2023-05-08T14:31:15.030Z,29.65
2023-05-08T14:32:15.972Z,35.97
2023-05-08T14:33:17.844Z,25.00
2023-05-08T14:34:15.952Z,14.35
2023-05-08T14:35:15.297Z,9.94
2023-05-08T14:36:14.931Z,10.35
2023-05-08T14:37:14.950Z,17.65
2023-05-08T14:38:16.054Z,20.43
2023-05-08T14:39:15.928Z,32.91
2023-05-08T14:40:14.914Z,25.91
2023-05-08T14:41:15.898Z,33.43
2023-05-08T14:42:22.980Z,37.87
2023-05-08T14:43:15.911Z,31.55
2023-05-08T14:44:14.909Z,25.93
2023-05-08T14:45:15.122Z,27.78
2023-05-08T14:46:14.880Z,14.99
2023-05-08T14:47:14.860Z,2.09
2023-05-08T14:48:14.895Z,25.23
2023-05-08T14:49:17.092Z,25.15
2023-05-08T14:50:15.860Z,25.44
2023-05-08T14:51:15.833Z,26.78
2023-05-08T14:52:14.822Z,28.39
2023-05-08T14:53:14.951Z,29.07
2023-05-08T14:54:15.035Z,39.68
2023-05-08T14:55:15.201Z,46.94
2023-05-08T14:56:15.848Z,58.93
2023-05-08T14:57:15.781Z,59.30
2023-05-08T14:58:14.777Z,58.50
2023-05-08T14:59:14.770Z,64.51
2023-05-08T15:00:16.056Z,49.62
2023-05-08T15:01:14.830Z,45.64
2023-05-08T15:02:15.920Z,41.32
2023-05-08T15:03:14.936Z,29.93
2023-05-08T15:04:15.055Z,30.17
2023-05-08T15:05:20.120Z,25.00
2023-05-08T15:06:15.992Z,25.22
2023-05-08T15:07:15.990Z,27.33
2023-05-08T15:08:15.972Z,26.23
2023-05-08T15:09:14.967Z,18.45
2023-05-08T15:10:15.092Z,23.16
2023-05-08T15:11:14.965Z,34.20
2023-05-08T15:12:14.943Z,36.24
2023-05-08T15:13:15.971Z,44.71
2023-05-08T15:14:15.950Z,47.18
2023-05-08T15:15:16.231Z,42.98
2023-05-08T15:16:14.975Z,60.27
2023-05-08T15:17:15.938Z,71.13
2023-05-08T15:18:15.906Z,80.11
2023-05-08T15:19:14.916Z,93.58
2023-05-08T15:20:15.896Z,102.00
2023-05-08T15:21:15.878Z,108.46
2023-05-08T15:22:14.886Z,115.16
2023-05-08T15:23:14.877Z,127.11
2023-05-08T15:24:14.866Z,134.51
2023-05-08T15:25:16.164Z,146.80
2023-05-08T15:26:15.983Z,156.70
2023-05-08T15:27:14.837Z,163.95
2023-05-08T15:28:14.844Z,171.62
2023-05-08T15:29:15.834Z,179.47
